FredonyerEastRWIS Atmospheric Data: 11/08/2019 Summary  Detailed Graphs  Station List

  Temperature     Wind Precipitation Visibility
Timestamp Air Wet
Bulb
Dew-
point
24-hr
Max
24-hr
Min
Relative
Humidity
Atmospheric
Pressure
Avg
Speed
Avg
Dir
Spot
Speed
Spot
Dir
Max
Speed
Max
Dir
  Rate Situation Start End 1 hr 3 hr 6 hr 12 hr 24 hr   Situation
Date Time °F °F °F °F °F % in Hg mph ° mph ° mph ° Y/N in/hr text Date Time Date Time in in in in in mi text
11/08/2019 12:09 AM 32.90 28.76 20.48 61.16 28.40 59.0 Not Reported 0.00 N 0.00 N 0.00 N No 0.000 No Precipitation 10/22/2019 12:21 PM 10/22/2019 12:27 PM 0.000 0.000 0.000 0.000 0.000 Not Reported Not Reported
11/08/2019 12:23 AM 32.72 28.76 20.66 61.16 28.40 60.0 Not Reported 0.00 N 0.00 N 0.00 N No 0.000 No Precipitation 10/22/2019 12:21 PM 10/22/2019 12:27 PM 0.000 0.000 0.000 0.000 0.000 Not Reported Not Reported
11/08/2019 12:39 AM 32.72 28.76 21.02 61.16 28.40 60.0 Not Reported 0.00 N 0.00 NW 0.67 NW No 0.000 No Precipitation 10/22/2019 12:21 PM 10/22/2019 12:27 PM 0.000 0.000 0.000 0.000 0.000 Not Reported Not Reported
11/08/2019 12:53 AM 32.36 28.58 20.66 61.16 28.40 61.0 Not Reported 0.00 N 0.00 NW 0.00 NW No 0.000 No Precipitation 10/22/2019 12:21 PM 10/22/2019 12:27 PM 0.000 0.000 0.000 0.000 0.000 Not Reported Not Reported
11/08/2019 01:09 AM 32.18 28.40 20.48 61.16 28.40 61.0 Not Reported 0.00 N 0.00 NW 0.00 NW No 0.000 No Precipitation 10/22/2019 12:21 PM 10/22/2019 12:27 PM 0.000 0.000 0.000 0.000 0.000 Not Reported Not Reported
11/08/2019 01:23 AM 32.00 28.40 21.02 61.16 28.40 63.0 Not Reported 0.00 N 0.00 NW 0.00 NW No 0.000 No Precipitation 10/22/2019 12:21 PM 10/22/2019 12:27 PM 0.000 0.000 0.000 0.000 0.000 Not Reported Not Reported
11/08/2019 01:38 AM 31.82 28.22 21.02 61.16 28.40 63.0 Not Reported 0.00 NW 0.89 NW 0.89 NW No 0.000 No Precipitation 10/22/2019 12:21 PM 10/22/2019 12:27 PM 0.000 0.000 0.000 0.000 0.000 Not Reported Not Reported
11/08/2019 01:53 AM 31.82 28.04 20.66 61.16 28.40 63.0 Not Reported 0.00 NW 0.67 NW 0.67 NW No 0.000 No Precipitation 10/22/2019 12:21 PM 10/22/2019 12:27 PM 0.000 0.000 0.000 0.000 0.000 Not Reported Not Reported
11/08/2019 02:08 AM 31.82 28.22 20.84 61.16 28.40 63.0 Not Reported 0.00 N 0.00 N 0.67 N No 0.000 No Precipitation 10/22/2019 12:21 PM 10/22/2019 12:27 PM 0.000 0.000 0.000 0.000 0.000 Not Reported Not Reported
11/08/2019 02:24 AM 31.82 28.04 20.66 61.16 28.40 63.0 Not Reported 0.00 N 0.00 N 0.00 N No 0.000 No Precipitation 10/22/2019 12:21 PM 10/22/2019 12:27 PM 0.000 0.000 0.000 0.000 0.000 Not Reported Not Reported
11/08/2019 02:39 AM 31.46 27.86 20.66 61.16 28.40 63.0 Not Reported 0.00 N 0.00 NW 0.00 N No 0.000 No Precipitation 10/22/2019 12:21 PM 10/22/2019 12:27 PM 0.000 0.000 0.000 0.000 0.000 Not Reported Not Reported
11/08/2019 02:53 AM 31.28 27.86 21.02 61.16 28.40 65.0 Not Reported 0.00 N 0.00 NW 0.00 N No 0.000 No Precipitation 10/22/2019 12:21 PM 10/22/2019 12:27 PM 0.000 0.000 0.000 0.000 0.000 Not Reported Not Reported
11/08/2019 03:08 AM 31.28 27.68 20.66 61.16 28.40 64.0 Not Reported 0.00 N 0.00 N 0.67 N No 0.000 No Precipitation 10/22/2019 12:21 PM 10/22/2019 12:27 PM 0.000 0.000 0.000 0.000 0.000 Not Reported Not Reported
11/08/2019 03:23 AM 30.92 27.50 20.66 61.16 28.40 65.0 Not Reported 0.22 NW 1.12 NW 1.12 NW No 0.000 No Precipitation 10/22/2019 12:21 PM 10/22/2019 12:27 PM 0.000 0.000 0.000 0.000 0.000 Not Reported Not Reported
11/08/2019 03:39 AM 30.74 27.50 20.84 61.16 28.40 66.0 Not Reported 0.00 N 0.00 N 0.00 NW No 0.000 No Precipitation 10/22/2019 12:21 PM 10/22/2019 12:27 PM 0.000 0.000 0.000 0.000 0.000 Not Reported Not Reported
11/08/2019 03:53 AM 30.56 27.32 20.84 61.16 28.40 66.0 Not Reported 0.00 N 0.00 N 0.67 N No 0.000 No Precipitation 10/22/2019 12:21 PM 10/22/2019 12:27 PM 0.000 0.000 0.000 0.000 0.000 Not Reported Not Reported
11/08/2019 04:08 AM 30.38 27.14 20.66 61.16 28.40 66.0 Not Reported 0.45 N 0.00 N 0.89 N No 0.000 No Precipitation 10/22/2019 12:21 PM 10/22/2019 12:27 PM 0.000 0.000 0.000 0.000 0.000 Not Reported Not Reported
11/08/2019 04:23 AM 30.56 27.32 20.66 61.16 28.40 66.0 Not Reported 0.00 N 0.00 N 0.00 N No 0.000 No Precipitation 10/22/2019 12:21 PM 10/22/2019 12:27 PM 0.000 0.000 0.000 0.000 0.000 Not Reported Not Reported
11/08/2019 04:39 AM 29.84 26.60 19.94 61.16 28.40 65.0 Not Reported 0.45 NW 0.00 NW 0.89 NW No 0.000 No Precipitation 10/22/2019 12:21 PM 10/22/2019 12:27 PM 0.000 0.000 0.000 0.000 0.000 Not Reported Not Reported
11/08/2019 04:53 AM 29.66 26.78 20.84 61.16 28.40 69.0 Not Reported 0.00 N 0.00 NW 0.00 NW No 0.000 No Precipitation 10/22/2019 12:21 PM 10/22/2019 12:27 PM 0.000 0.000 0.000 0.000 0.000 Not Reported Not Reported
11/08/2019 05:10 AM 29.66 26.78 20.66 61.16 28.40 68.0 Not Reported 0.00 N 0.00 N 0.67 N No 0.000 No Precipitation 10/22/2019 12:21 PM 10/22/2019 12:27 PM 0.000 0.000 0.000 0.000 0.000 Not Reported Not Reported
11/08/2019 05:23 AM 29.84 26.96 20.84 61.16 28.40 68.0 Not Reported 0.00 N 0.00 NW 0.67 NW No 0.000 No Precipitation 10/22/2019 12:21 PM 10/22/2019 12:27 PM 0.000 0.000 0.000 0.000 0.000 Not Reported Not Reported
11/08/2019 05:38 AM 29.66 26.78 20.66 61.16 28.40 68.0 Not Reported 0.00 N 0.00 NW 0.89 NW No 0.000 No Precipitation 10/22/2019 12:21 PM 10/22/2019 12:27 PM 0.000 0.000 0.000 0.000 0.000 Not Reported Not Reported
11/08/2019 05:53 AM 29.84 26.96 20.84 61.16 28.40 68.0 Not Reported 0.00 N 0.00 N 0.89 NW No 0.000 No Precipitation 10/22/2019 12:21 PM 10/22/2019 12:27 PM 0.000 0.000 0.000 0.000 0.000 Not Reported Not Reported
11/08/2019 06:08 AM 29.66 26.78 20.84 61.16 28.40 69.0 Not Reported 0.00 N 0.00 NW 0.67 NW No 0.000 No Precipitation 10/22/2019 12:21 PM 10/22/2019 12:27 PM 0.000 0.000 0.000 0.000 0.000 Not Reported Not Reported
11/08/2019 06:23 AM 29.12 26.24 20.66 61.16 28.40 70.0 Not Reported 0.00 N 0.00 NW 0.00 NW No 0.000 No Precipitation 10/22/2019 12:21 PM 10/22/2019 12:27 PM 0.000 0.000 0.000 0.000 0.000 Not Reported Not Reported
11/08/2019 06:38 AM 29.30 26.60 20.84 61.16 28.76 70.0 Not Reported 0.22 N 0.00 N 0.67 NW No 0.000 No Precipitation 10/22/2019 12:21 PM 10/22/2019 12:27 PM 0.000 0.000 0.000 0.000 0.000 Not Reported Not Reported
11/08/2019 06:53 AM 29.30 26.60 20.84 61.16 28.94 69.0 Not Reported 0.00 N 0.00 NW 0.00 NW No 0.000 No Precipitation 10/22/2019 12:21 PM 10/22/2019 12:27 PM 0.000 0.000 0.000 0.000 0.000 Not Reported Not Reported
11/08/2019 07:08 AM 28.94 26.24 21.02 61.16 28.58 71.0 Not Reported 0.00 N 0.00 NW 0.00 NW No 0.000 No Precipitation 10/22/2019 12:21 PM 10/22/2019 12:27 PM 0.000 0.000 0.000 0.000 0.000 Not Reported Not Reported
11/08/2019 07:23 AM 29.66 26.96 21.56 61.16 28.58 71.0 Not Reported 0.00 N 0.00 N 0.00 N No 0.000 No Precipitation 10/22/2019 12:21 PM 10/22/2019 12:27 PM 0.000 0.000 0.000 0.000 0.000 Not Reported Not Reported
11/08/2019 07:39 AM 30.92 28.04 22.28 61.16 28.58 69.0 Not Reported 0.00 N 0.00 N 0.00 N No 0.000 No Precipitation 10/22/2019 12:21 PM 10/22/2019 12:27 PM 0.000 0.000 0.000 0.000 0.000 Not Reported Not Reported
11/08/2019 07:53 AM 33.62 30.20 23.90 61.16 28.58 66.0 Not Reported 0.00 N 0.00 NE 0.00 N No 0.000 No Precipitation 10/22/2019 12:21 PM 10/22/2019 12:27 PM 0.000 0.000 0.000 0.000 0.000 Not Reported Not Reported
11/08/2019 08:08 AM 35.60 31.82 24.80 61.16 28.58 63.0 Not Reported 0.22 SE 0.45 SE 0.89 SE No 0.000 No Precipitation 10/22/2019 12:21 PM 10/22/2019 12:27 PM 0.000 0.000 0.000 0.000 0.000 Not Reported Not Reported
11/08/2019 08:23 AM 37.58 32.90 24.98 61.16 28.58 59.0 Not Reported 0.89 SE 0.45 SE 1.12 SE No 0.000 No Precipitation 10/22/2019 12:21 PM 10/22/2019 12:27 PM 0.000 0.000 0.000 0.000 0.000 Not Reported Not Reported
11/08/2019 08:39 AM 40.64 34.34 24.26 61.16 28.58 51.0 Not Reported 1.57 SE 1.57 SE 1.79 SE No 0.000 No Precipitation 10/22/2019 12:21 PM 10/22/2019 12:27 PM 0.000 0.000 0.000 0.000 0.000 Not Reported Not Reported
11/08/2019 08:53 AM 43.52 36.14 24.62 61.16 28.58 46.0 Not Reported 1.12 SE 1.79 S 1.79 S No 0.000 No Precipitation 10/22/2019 12:21 PM 10/22/2019 12:27 PM 0.000 0.000 0.000 0.000 0.000 Not Reported Not Reported
11/08/2019 09:08 AM 46.22 37.76 24.80 61.16 28.58 42.0 Not Reported 2.24 S 2.91 S 2.91 S No 0.000 No Precipitation 10/22/2019 12:21 PM 10/22/2019 12:27 PM 0.000 0.000 0.000 0.000 0.000 Not Reported Not Reported
11/08/2019 09:23 AM 47.30 38.84 26.42 61.16 28.58 43.0 Not Reported 3.36 S 3.13 S 3.58 S No 0.000 No Precipitation 10/22/2019 12:21 PM 10/22/2019 12:27 PM 0.000 0.000 0.000 0.000 0.000 Not Reported Not Reported
11/08/2019 09:38 AM 52.52 41.18 25.34 61.16 28.58 34.0 Not Reported 2.01 SE 2.68 E 3.58 S No 0.000 No Precipitation 10/22/2019 12:21 PM 10/22/2019 12:27 PM 0.000 0.000 0.000 0.000 0.000 Not Reported Not Reported
11/08/2019 09:53 AM 53.60 41.72 24.80 61.16 28.58 32.0 Not Reported 2.01 E 1.34 SE 2.68 E No 0.000 No Precipitation 10/22/2019 12:21 PM 10/22/2019 12:27 PM 0.000 0.000 0.000 0.000 0.000 Not Reported Not Reported
11/08/2019 10:08 AM 55.76 42.44 23.36 61.16 28.58 28.0 Not Reported 1.57 SE 1.57 S 2.46 N No 0.000 No Precipitation 10/22/2019 12:21 PM 10/22/2019 12:27 PM 0.000 0.000 0.000 0.000 0.000 Not Reported Not Reported
11/08/2019 10:23 AM 55.76 42.44 23.18 61.16 28.58 27.0 Not Reported 2.01 E 5.14 SE 5.14 SE No 0.000 No Precipitation 10/22/2019 12:21 PM 10/22/2019 12:27 PM 0.000 0.000 0.000 0.000 0.000 Not Reported Not Reported
11/08/2019 10:38 AM 55.58 42.44 23.90 61.16 28.58 28.0 Not Reported 4.47 SE 2.68 E 6.04 SE No 0.000 No Precipitation 10/22/2019 12:21 PM 10/22/2019 12:27 PM 0.000 0.000 0.000 0.000 0.000 Not Reported Not Reported
11/08/2019 10:53 AM 56.66 42.80 23.18 61.16 28.58 26.0 Not Reported 2.24 SE 5.14 SE 6.04 S No 0.000 No Precipitation 10/22/2019 12:21 PM 10/22/2019 12:27 PM 0.000 0.000 0.000 0.000 0.000 Not Reported Not Reported
11/08/2019 11:09 AM 58.46 43.34 21.38 61.16 28.58 23.0 Not Reported 2.24 SE 2.01 SE 4.47 SE No 0.000 No Precipitation 10/22/2019 12:21 PM 10/22/2019 12:27 PM 0.000 0.000 0.000 0.000 0.000 Not Reported Not Reported
11/08/2019 11:23 AM 58.82 43.52 21.56 61.16 28.58 23.0 Not Reported 4.03 SE 4.25 E 5.14 E No 0.000 No Precipitation 10/22/2019 12:21 PM 10/22/2019 12:27 PM 0.000 0.000 0.000 0.000 0.000 Not Reported Not Reported
11/08/2019 11:38 AM 59.90 44.42 22.64 61.16 28.58 23.0 Not Reported 4.25 SE 5.14 E 5.82 SE No 0.000 No Precipitation 10/22/2019 12:21 PM 10/22/2019 12:27 PM 0.000 0.000 0.000 0.000 0.000 Not Reported Not Reported
11/08/2019 11:53 AM 61.34 45.14 23.18 61.52 28.58 22.0 Not Reported 3.80 E 4.92 SE 6.26 E No 0.000 No Precipitation 10/22/2019 12:21 PM 10/22/2019 12:27 PM 0.000 0.000 0.000 0.000 0.000 Not Reported Not Reported
11/08/2019 12:09 PM 62.06 45.50 22.64 62.06 28.58 21.0 Not Reported 2.68 SE 6.04 SE 6.04 SE No 0.000 No Precipitation 10/22/2019 12:21 PM 10/22/2019 12:27 PM 0.000 0.000 0.000 0.000 0.000 Not Reported Not Reported
11/08/2019 12:23 PM 62.96 45.86 22.64 62.96 28.58 21.0 Not Reported 4.25 S 2.68 SE 5.14 S No 0.000 No Precipitation 10/22/2019 12:21 PM 10/22/2019 12:27 PM 0.000 0.000 0.000 0.000 0.000 Not Reported Not Reported
11/08/2019 12:38 PM 64.04 46.40 23.00 64.22 28.58 20.0 Not Reported 2.24 SE 3.13 SW 5.14 SE No 0.000 No Precipitation 10/22/2019 12:21 PM 10/22/2019 12:27 PM 0.000 0.000 0.000 0.000 0.000 Not Reported Not Reported
11/08/2019 12:53 PM 64.04 46.40 22.64 64.58 28.58 20.0 Not Reported 3.58 SE 2.01 S 5.14 SE No 0.000 No Precipitation 10/22/2019 12:21 PM 10/22/2019 12:27 PM 0.000 0.000 0.000 0.000 0.000 Not Reported Not Reported
11/08/2019 01:08 PM 62.96 45.86 22.64 65.48 28.58 21.0 Not Reported 2.91 SE 1.57 NE 7.16 S No 0.000 No Precipitation 10/22/2019 12:21 PM 10/22/2019 12:27 PM 0.000 0.000 0.000 0.000 0.000 Not Reported Not Reported
11/08/2019 01:23 PM 64.40 46.40 21.92 65.48 28.58 19.0 Not Reported 3.58 S 4.47 S 7.16 SE No 0.000 No Precipitation 10/22/2019 12:21 PM 10/22/2019 12:27 PM 0.000 0.000 0.000 0.000 0.000 Not Reported Not Reported
11/08/2019 01:38 PM 64.04 46.40 22.46 65.66 28.58 20.0 Not Reported 5.37 SE 4.92 S 6.04 S No 0.000 No Precipitation 10/22/2019 12:21 PM 10/22/2019 12:27 PM 0.000 0.000 0.000 0.000 0.000 Not Reported Not Reported
11/08/2019 01:53 PM 64.76 46.76 22.46 65.66 28.58 19.0 Not Reported 5.14 S 2.46 E 6.04 S No 0.000 No Precipitation 10/22/2019 12:21 PM 10/22/2019 12:27 PM 0.000 0.000 0.000 0.000 0.000 Not Reported Not Reported
11/08/2019 02:08 PM 64.22 46.58 23.00 65.84 28.58 20.0 Not Reported 5.59 SE 5.14 SE 7.83 S No 0.000 No Precipitation 10/22/2019 12:21 PM 10/22/2019 12:27 PM 0.000 0.000 0.000 0.000 0.000 Not Reported Not Reported
11/08/2019 02:23 PM 66.20 47.30 22.10 66.38 28.58 18.0 Not Reported 2.91 N 3.36 E 5.14 SE No 0.000 No Precipitation 10/22/2019 12:21 PM 10/22/2019 12:27 PM 0.000 0.000 0.000 0.000 0.000 Not Reported Not Reported
11/08/2019 02:39 PM 66.56 47.48 21.92 66.74 28.58 18.0 Not Reported 2.46 SE 1.57 E 4.92 N No 0.000 No Precipitation 10/22/2019 12:21 PM 10/22/2019 12:27 PM 0.000 0.000 0.000 0.000 0.000 Not Reported Not Reported
11/08/2019 02:53 PM 65.48 47.12 23.00 66.74 28.58 19.0 Not Reported 2.46 SE 0.67 S 4.92 S No 0.000 No Precipitation 10/22/2019 12:21 PM 10/22/2019 12:27 PM 0.000 0.000 0.000 0.000 0.000 Not Reported Not Reported
11/08/2019 03:08 PM 65.12 46.76 22.10 66.74 28.58 19.0 Not Reported 2.01 NE 2.01 E 3.13 E No 0.000 No Precipitation 10/22/2019 12:21 PM 10/22/2019 12:27 PM 0.000 0.000 0.000 0.000 0.000 Not Reported Not Reported
11/08/2019 03:23 PM 62.78 46.58 26.42 66.74 28.58 24.0 Not Reported 2.24 N 2.01 N 3.36 NE No 0.000 No Precipitation 10/22/2019 12:21 PM 10/22/2019 12:27 PM 0.000 0.000 0.000 0.000 0.000 Not Reported Not Reported
11/08/2019 03:39 PM 57.20 44.06 26.42 66.74 28.58 30.0 Not Reported 1.12 W 0.89 NW 3.13 NW No 0.000 No Precipitation 10/22/2019 12:21 PM 10/22/2019 12:27 PM 0.000 0.000 0.000 0.000 0.000 Not Reported Not Reported
11/08/2019 03:54 PM 52.16 41.36 26.60 66.74 28.58 36.0 Not Reported 0.67 NW 1.34 W 1.57 W No 0.000 No Precipitation 10/22/2019 12:21 PM 10/22/2019 12:27 PM 0.000 0.000 0.000 0.000 0.000 Not Reported Not Reported
11/08/2019 04:08 PM 50.18 40.10 25.52 66.74 28.58 37.0 Not Reported 2.46 NW 1.57 N 3.13 NW No 0.000 No Precipitation 10/22/2019 12:21 PM 10/22/2019 12:27 PM 0.000 0.000 0.000 0.000 0.000 Not Reported Not Reported
11/08/2019 04:23 PM 49.10 39.56 25.88 66.74 28.58 39.0 Not Reported 1.79 N 0.67 NW 2.68 NW No 0.000 No Precipitation 10/22/2019 12:21 PM 10/22/2019 12:27 PM 0.000 0.000 0.000 0.000 0.000 Not Reported Not Reported
11/08/2019 04:38 PM 47.48 38.66 25.70 66.74 28.58 41.0 Not Reported 1.34 NW 1.12 NW 1.79 NW No 0.000 No Precipitation 10/22/2019 12:21 PM 10/22/2019 12:27 PM 0.000 0.000 0.000 0.000 0.000 Not Reported Not Reported
11/08/2019 04:53 PM 45.86 37.94 25.88 66.74 28.58 44.0 Not Reported 1.34 NW 0.89 W 1.57 NW No 0.000 No Precipitation 10/22/2019 12:21 PM 10/22/2019 12:27 PM 0.000 0.000 0.000 0.000 0.000 Not Reported Not Reported
11/08/2019 05:08 PM 44.06 36.86 25.88 66.74 28.58 47.0 Not Reported 0.22 W 0.89 W 1.12 W No 0.000 No Precipitation 10/22/2019 12:21 PM 10/22/2019 12:27 PM 0.000 0.000 0.000 0.000 0.000 Not Reported Not Reported
11/08/2019 05:23 PM 42.80 35.60 24.08 66.74 28.58 46.0 Not Reported 0.89 NW 0.00 NW 0.89 NW No 0.000 No Precipitation 10/22/2019 12:21 PM 10/22/2019 12:27 PM 0.000 0.000 0.000 0.000 0.000 Not Reported Not Reported
11/08/2019 05:38 PM 41.72 34.88 24.08 66.74 28.58 48.0 Not Reported 0.89 NW 0.67 NW 1.12 NW No 0.000 No Precipitation 10/22/2019 12:21 PM 10/22/2019 12:27 PM 0.000 0.000 0.000 0.000 0.000 Not Reported Not Reported
11/08/2019 05:53 PM 40.82 34.16 23.18 66.74 28.58 48.0 Not Reported 0.45 W 0.00 W 2.01 NW No 0.000 No Precipitation 10/22/2019 12:21 PM 10/22/2019 12:27 PM 0.000 0.000 0.000 0.000 0.000 Not Reported Not Reported
11/08/2019 06:08 PM 39.74 33.62 23.36 66.74 28.58 51.0 Not Reported 0.00 N 0.00 W 0.00 W No 0.000 No Precipitation 10/22/2019 12:21 PM 10/22/2019 12:27 PM 0.000 0.000 0.000 0.000 0.000 Not Reported Not Reported
11/08/2019 06:23 PM 39.20 33.08 22.28 66.74 28.58 49.0 Not Reported 0.22 W 0.00 W 1.34 W No 0.000 No Precipitation 10/22/2019 12:21 PM 10/22/2019 12:27 PM 0.000 0.000 0.000 0.000 0.000 Not Reported Not Reported
11/08/2019 06:38 PM 38.48 32.54 22.10 66.74 28.58 50.0 Not Reported 0.45 NW 0.45 NW 0.67 NW No 0.000 No Precipitation 10/22/2019 12:21 PM 10/22/2019 12:27 PM 0.000 0.000 0.000 0.000 0.000 Not Reported Not Reported
11/08/2019 06:53 PM 38.48 32.36 21.74 66.74 28.58 50.0 Not Reported 0.67 NW 0.00 NW 1.34 NW No 0.000 No Precipitation 10/22/2019 12:21 PM 10/22/2019 12:27 PM 0.000 0.000 0.000 0.000 0.000 Not Reported Not Reported
11/08/2019 07:09 PM 37.76 32.36 23.00 66.74 28.58 54.0 Not Reported 0.00 N 0.00 S 0.00 S No 0.000 No Precipitation 10/22/2019 12:21 PM 10/22/2019 12:27 PM 0.000 0.000 0.000 0.000 0.000 Not Reported Not Reported
11/08/2019 07:23 PM 37.76 32.00 21.56 66.74 28.58 51.0 Not Reported 0.89 NW 0.67 NW 1.12 NW No 0.000 No Precipitation 10/22/2019 12:21 PM 10/22/2019 12:27 PM 0.000 0.000 0.000 0.000 0.000 Not Reported Not Reported
11/08/2019 07:38 PM 37.58 32.00 21.56 66.74 28.58 51.0 Not Reported 0.00 N 0.00 W 1.34 NW No 0.000 No Precipitation 10/22/2019 12:21 PM 10/22/2019 12:27 PM 0.000 0.000 0.000 0.000 0.000 Not Reported Not Reported
11/08/2019 07:54 PM 37.40 32.00 23.00 66.74 28.58 55.0 Not Reported 0.00 N 0.00 N 0.45 NW No 0.000 No Precipitation 10/22/2019 12:21 PM 10/22/2019 12:27 PM 0.000 0.000 0.000 0.000 0.000 Not Reported Not Reported
11/08/2019 08:09 PM 37.22 31.82 22.28 66.74 28.58 53.0 Not Reported 1.12 NW 0.89 NW 1.34 NW No 0.000 No Precipitation 10/22/2019 12:21 PM 10/22/2019 12:27 PM 0.000 0.000 0.000 0.000 0.000 Not Reported Not Reported
11/08/2019 08:23 PM 36.50 31.46 21.92 66.74 28.58 54.0 Not Reported 0.00 N 0.00 NE 0.67 NW No 0.000 No Precipitation 10/22/2019 12:21 PM 10/22/2019 12:27 PM 0.000 0.000 0.000 0.000 0.000 Not Reported Not Reported
11/08/2019 08:38 PM 36.32 31.28 21.38 66.74 28.58 53.0 Not Reported 0.22 NW 0.89 NW 0.89 NW No 0.000 No Precipitation 10/22/2019 12:21 PM 10/22/2019 12:27 PM 0.000 0.000 0.000 0.000 0.000 Not Reported Not Reported
11/08/2019 08:53 PM 36.14 30.92 20.84 66.74 28.58 53.0 Not Reported 0.89 N 0.45 N 1.12 NW No 0.000 No Precipitation 10/22/2019 12:21 PM 10/22/2019 12:27 PM 0.000 0.000 0.000 0.000 0.000 Not Reported Not Reported
11/08/2019 09:08 PM 35.78 30.74 20.48 66.74 28.58 52.0 Not Reported 0.00 NW 0.00 NW 0.89 NW No 0.000 No Precipitation 10/22/2019 12:21 PM 10/22/2019 12:27 PM 0.000 0.000 0.000 0.000 0.000 Not Reported Not Reported
11/08/2019 09:23 PM 36.14 31.10 21.20 66.74 28.58 53.0 Not Reported 0.00 N 0.00 N 0.67 N No 0.000 No Precipitation 10/22/2019 12:21 PM 10/22/2019 12:27 PM 0.000 0.000 0.000 0.000 0.000 Not Reported Not Reported
11/08/2019 09:38 PM 35.24 30.38 20.66 66.74 28.58 54.0 Not Reported 0.00 N 0.00 NW 0.45 NW No 0.000 No Precipitation 10/22/2019 12:21 PM 10/22/2019 12:27 PM 0.000 0.000 0.000 0.000 0.000 Not Reported Not Reported
11/08/2019 09:53 PM 35.06 30.20 20.30 66.74 28.58 54.0 Not Reported 0.22 NW 0.00 NW 0.89 N No 0.000 No Precipitation 10/22/2019 12:21 PM 10/22/2019 12:27 PM 0.000 0.000 0.000 0.000 0.000 Not Reported Not Reported
11/08/2019 10:09 PM 34.34 29.84 20.48 66.74 28.58 55.0 Not Reported 0.00 SW 0.00 SW 0.67 N No 0.000 No Precipitation 10/22/2019 12:21 PM 10/22/2019 12:27 PM 0.000 0.000 0.000 0.000 0.000 Not Reported Not Reported
11/08/2019 10:23 PM 34.34 29.84 21.20 66.74 28.58 57.0 Not Reported 0.00 N 0.00 SW 0.00 SW No 0.000 No Precipitation 10/22/2019 12:21 PM 10/22/2019 12:27 PM 0.000 0.000 0.000 0.000 0.000 Not Reported Not Reported
11/08/2019 10:38 PM 34.70 30.02 20.84 66.74 28.58 56.0 Not Reported 0.45 NW 0.89 NW 1.34 NW No 0.000 No Precipitation 10/22/2019 12:21 PM 10/22/2019 12:27 PM 0.000 0.000 0.000 0.000 0.000 Not Reported Not Reported
11/08/2019 10:53 PM 34.52 29.66 20.12 66.74 28.58 55.0 Not Reported 0.00 W 0.00 NW 0.89 W No 0.000 No Precipitation 10/22/2019 12:21 PM 10/22/2019 12:27 PM 0.000 0.000 0.000 0.000 0.000 Not Reported Not Reported
11/08/2019 11:09 PM 34.34 29.66 20.84 66.74 28.58 56.0 Not Reported 0.00 NW 1.79 NW 1.79 NW No 0.000 No Precipitation 10/22/2019 12:21 PM 10/22/2019 12:27 PM 0.000 0.000 0.000 0.000 0.000 Not Reported Not Reported
11/08/2019 11:23 PM 33.98 29.30 19.76 66.74 28.58 54.0 Not Reported 0.22 NW 0.00 NW 1.12 NW No 0.000 No Precipitation 10/22/2019 12:21 PM 10/22/2019 12:27 PM 0.000 0.000 0.000 0.000 0.000 Not Reported Not Reported
11/08/2019 11:38 PM 33.62 28.94 18.86 66.74 28.58 54.0 Not Reported 0.00 N 0.00 NW 0.00 NW No 0.000 No Precipitation 10/22/2019 12:21 PM 10/22/2019 12:27 PM 0.000 0.000 0.000 0.000 0.000 Not Reported Not Reported
11/08/2019 11:53 PM 33.44 28.58 18.14 66.74 28.58 52.0 Not Reported 0.67 NW 0.89 NW 0.89 NW No 0.000 No Precipitation 10/22/2019 12:21 PM 10/22/2019 12:27 PM 0.000 0.000 0.000 0.000 0.000 Not Reported Not Reported